Time,TemperatureF,DewpointF,PressureIn,WindDirection,WindDirectionDegrees,WindSpeedMPH,WindSpeedGustMPH,Humidity,HourlyPrecipIn,Conditions,Clouds,dailyrainin,SoftwareType,DateUTC
2013-12-18 00:12:00,60.0,-99.9,-100.00,NE,48,4.0,13.0,-999,-99.99,,,-99.99,,2013-12-18 07:12:00,
2013-12-18 00:22:00,59.0,-99.9,-100.00,North,-999,0.0,5.0,-999,-99.99,,,-99.99,,2013-12-18 07:22:00,
2013-12-18 00:32:00,59.0,-99.9,-100.00,North,-999,0.0,5.0,-999,-99.99,,,-99.99,,2013-12-18 07:32:00,
2013-12-18 01:12:00,60.0,-99.9,-100.00,ENE,70,6.0,9.0,-999,-99.99,,,-99.99,,2013-12-18 08:12:00,
2013-12-18 01:20:00,58.0,-99.9,-100.00,North,-999,0.0,6.0,-999,-99.99,,,-99.99,,2013-12-18 08:20:00,
2013-12-18 01:52:00,58.0,-99.9,-100.00,ENE,64,4.0,13.0,-999,-99.99,,,-99.99,,2013-12-18 08:52:00,
2013-12-18 02:12:00,58.0,-99.9,-100.00,North,-999,0.0,6.0,-999,-99.99,,,-99.99,,2013-12-18 09:12:00,
2013-12-18 02:20:00,56.0,-99.9,-100.00,NNE,22,16.0,16.0,-999,-99.99,,,-99.99,,2013-12-18 09:20:00,
2013-12-18 02:50:00,56.0,-99.9,-100.00,ENE,65,7.0,8.0,-999,-99.99,,,-99.99,,2013-12-18 09:50:00,
2013-12-18 02:54:00,56.0,-99.9,-100.00,North,-999,0.0,6.0,-999,-99.99,,,-99.99,,2013-12-18 09:54:00,
2013-12-18 03:13:00,56.0,-99.9,-100.00,NNE,22,16.0,16.0,-999,-99.99,,,-99.99,,2013-12-18 10:13:00,
2013-12-18 03:42:00,56.0,-99.9,-100.00,ENE,65,7.0,8.0,-999,-99.99,,,-99.99,,2013-12-18 10:42:00,
2013-12-18 04:12:00,56.0,-99.9,-100.00,NE,49,4.0,13.0,-999,-99.99,,,-99.99,,2013-12-18 11:12:00,
2013-12-18 04:23:00,56.0,-99.9,-100.00,ENE,69,4.0,9.0,-999,-99.99,,,-99.99,,2013-12-18 11:23:00,
2013-12-18 05:42:00,55.0,-99.9,-100.00,NNE,16,10.0,10.0,-999,-99.99,,,-99.99,,2013-12-18 12:42:00,
2013-12-18 05:53:00,55.0,-99.9,-100.00,NNE,16,10.0,10.0,-999,-99.99,,,-99.99,,2013-12-18 12:53:00,
2013-12-18 08:44:00,59.0,-99.9,-100.00,ENE,76,5.0,6.0,-999,-99.99,,,-99.99,,2013-12-18 15:44:00,
2013-12-18 08:54:00,59.0,-99.9,-100.00,ENE,76,5.0,6.0,-999,-99.99,,,-99.99,,2013-12-18 15:54:00,
2013-12-18 09:40:00,63.0,-99.9,-100.00,East,97,6.0,7.0,-999,-99.99,,,-99.99,,2013-12-18 16:40:00,
2013-12-18 10:13:00,62.0,-99.9,-100.00,East,98,3.0,10.0,-999,-99.99,,,-99.99,,2013-12-18 17:13:00,
2013-12-18 10:20:00,65.0,-99.9,-100.00,ENE,78,10.0,10.0,-999,-99.99,,,-99.99,,2013-12-18 17:20:00,
2013-12-18 10:23:00,63.0,-99.9,-100.00,East,97,6.0,7.0,-999,-99.99,,,-99.99,,2013-12-18 17:23:00,
2013-12-18 10:33:00,63.0,-99.9,-100.00,East,97,6.0,7.0,-999,-99.99,,,-99.99,,2013-12-18 17:33:00,
2013-12-18 11:12:00,65.0,-99.9,-100.00,ENE,78,10.0,10.0,-999,-99.99,,,-99.99,,2013-12-18 18:12:00,
2013-12-18 11:42:00,68.0,-99.9,-100.00,North,11,4.0,11.0,-999,-99.99,,,-99.99,,2013-12-18 18:42:00,
2013-12-18 12:00:00,69.0,-99.9,-100.00,ESE,117,8.0,14.0,-999,-99.99,,,-99.99,,2013-12-18 19:00:00,
2013-12-18 12:52:00,69.0,-99.9,-100.00,ESE,117,8.0,14.0,-999,-99.99,,,-99.99,,2013-12-18 19:52:00,
2013-12-18 13:42:00,72.0,-99.9,-100.00,SSE,153,11.0,12.0,-999,-99.99,,,-99.99,,2013-12-18 20:42:00,
2013-12-18 14:11:00,72.0,-99.9,-100.00,SE,126,8.0,10.0,-999,-99.99,,,-99.99,,2013-12-18 21:11:00,
2013-12-18 14:22:00,73.0,-99.9,-100.00,ESE,120,8.0,10.0,-999,-99.99,,,-99.99,,2013-12-18 21:22:00,
2013-12-18 14:43:00,72.0,-99.9,-100.00,ESE,119,9.0,12.0,-999,-99.99,,,-99.99,,2013-12-18 21:43:00,
2013-12-18 16:22:00,72.0,-99.9,-100.00,West,266,3.0,7.0,-999,-99.99,,,-99.99,,2013-12-18 23:22:00,
2013-12-18 16:42:00,72.0,-99.9,-100.00,SW,216,2.0,4.0,-999,-99.99,,,-99.99,,2013-12-18 23:42:00,
2013-12-18 16:53:00,73.0,-99.9,-100.00,North,-999,0.0,4.0,-999,-99.99,,,-99.99,,2013-12-18 23:53:00,
2013-12-18 17:02:00,73.0,-99.9,-100.00,North,-999,0.0,4.0,-999,-99.99,,,-99.99,,2013-12-19 00:02:00,
2013-12-18 18:10:00,64.0,-99.9,-100.00,SSW,213,5.0,7.0,-999,-99.99,,,-99.99,,2013-12-19 01:10:00,
2013-12-18 18:52:00,64.0,-99.9,-100.00,SSW,213,5.0,7.0,-999,-99.99,,,-99.99,,2013-12-19 01:52:00,
2013-12-18 19:01:00,64.0,-99.9,-100.00,SSW,213,5.0,7.0,-999,-99.99,,,-99.99,,2013-12-19 02:01:00,
2013-12-18 19:30:00,62.0,-99.9,-100.00,North,7,3.0,4.0,-999,-99.99,,,-99.99,,2013-12-19 02:30:00,
2013-12-18 20:22:00,62.0,-99.9,-100.00,North,7,3.0,4.0,-999,-99.99,,,-99.99,,2013-12-19 03:22:00,
2013-12-18 21:43:00,58.0,-99.9,-100.00,SSW,204,4.0,7.0,-999,-99.99,,,-99.99,,2013-12-19 04:43:00,
2013-12-18 21:53:00,58.0,-99.9,-100.00,WSW,244,2.0,7.0,-999,-99.99,,,-99.99,,2013-12-19 04:53:00,
2013-12-18 22:03:00,58.0,-99.9,-100.00,WSW,244,2.0,7.0,-999,-99.99,,,-99.99,,2013-12-19 05:03:00,
2013-12-18 22:10:00,56.0,-99.9,-100.00,SSW,194,7.0,8.0,-999,-99.99,,,-99.99,,2013-12-19 05:10:00,
2013-12-18 22:22:00,57.0,-99.9,-100.00,SSW,208,4.0,7.0,-999,-99.99,,,-99.99,,2013-12-19 05:22:00,
2013-12-18 22:40:00,55.0,-99.9,-100.00,South,177,12.0,12.0,-999,-99.99,,,-99.99,,2013-12-19 05:40:00,
2013-12-18 22:42:00,57.0,-99.9,-100.00,South,187,3.0,7.0,-999,-99.99,,,-99.99,,2013-12-19 05:42:00,
2013-12-18 22:52:00,56.0,-99.9,-100.00,SSW,194,7.0,8.0,-999,-99.99,,,-99.99,,2013-12-19 05:52:00,
2013-12-18 23:02:00,56.0,-99.9,-100.00,SSW,194,7.0,8.0,-999,-99.99,,,-99.99,,2013-12-19 06:02:00,
2013-12-18 23:22:00,55.0,-99.9,-100.00,South,177,12.0,12.0,-999,-99.99,,,-99.99,,2013-12-19 06:22:00,
2013-12-18 23:32:00,55.0,-99.9,-100.00,South,177,12.0,12.0,-999,-99.99,,,-99.99,,2013-12-19 06:32:00,
2013-12-18 23:52:00,55.0,-99.9,-100.00,South,186,2.0,9.0,-999,-99.99,,,-99.99,,2013-12-19 06:52:00,